Inverkip, United Kingdom
Current Conditions -  °F | °C
As of 10:20 AM on Monday 20 Oct 2014 (Local Time) from EGPF Reporting Station
Drizzle Drizzle  
Wind Chill: 52°   Ceiling: 1700
Heat Index: 52°   Visibility: 2.9mi
Dew Point: 50°   Wind: 12mph
Humidity: 94%   Direction: 230°SW
Pressure: 29.74"   Gusts: NA
Location:  55.91°N, 4.87°W
Report Text: EGPF 200920Z AUTO 23010KT 4700 DZ FEW010 BKN017 11/10 Q1007
Loading
Personal Weather Stations






























Interactive Weather Map
Tropical Storm Tracking
New forecast layout! Learn more

10-Day Weather Forecast

Advertisements
Track Severe Weather on mobile